Time;durP1;ratioP1;P1;durP2;ratioP2;P2;SDS_P1;SDS_P2;PMS_P1;PMS_P2;Temp;Humidity;BMP_temperature;BMP_pressure;BME280_temperature;BME280_humidity;BME280_pressure;Samples;Min_cycle;Max_cycle;Signal;HPM_P1;HPM_P2
2021/07/29 00:00:29;;;;;;;5.15;3.55;;;;;;;14.00;48.46;95206.53;5010075;28;20049;-71
2021/07/29 00:02:54;;;;;;;4.55;2.67;;;;;;;13.71;48.97;95206.78;5004256;28;20124;-71
2021/07/29 00:05:19;;;;;;;4.30;2.40;;;;;;;13.89;48.83;95198.13;5009812;28;20037;-71
2021/07/29 00:07:45;;;;;;;5.07;3.28;;;;;;;12.98;51.36;95201.19;5008627;28;20042;-70
2021/07/29 00:10:11;;;;;;;6.25;2.67;;;;;;;13.60;49.87;95194.03;5008972;28;20054;-70
2021/07/29 00:12:36;;;;;;;4.03;2.42;;;;;;;13.80;49.21;95199.31;5013026;28;20478;-71
2021/07/29 00:15:02;;;;;;;3.95;2.35;;;;;;;13.76;49.15;95198.09;5009401;28;20501;-70
2021/07/29 00:17:29;;;;;;;7.65;2.58;;;;;;;12.98;51.41;95192.34;5012137;28;20038;-70
2021/07/29 00:19:55;;;;;;;4.05;2.38;;;;;;;13.72;49.08;95180.81;5009308;28;20668;-70
2021/07/29 00:22:20;;;;;;;5.00;2.67;;;;;;;13.87;48.76;95184.09;5010368;28;20037;-70
2021/07/29 00:24:46;;;;;;;6.40;2.55;;;;;;;13.81;48.76;95187.63;5008998;28;20055;-70
2021/07/29 00:27:11;;;;;;;4.43;2.70;;;;;;;13.15;50.53;95179.44;5009450;28;20046;-70
2021/07/29 00:29:36;;;;;;;3.00;2.38;;;;;;;13.64;48.96;95165.84;5015777;28;20029;-71
2021/07/29 00:32:04;;;;;;;5.22;2.63;;;;;;;13.86;48.47;95171.75;5016400;28;20096;-70
2021/07/29 00:34:29;;;;;;;4.68;2.75;;;;;;;13.86;48.53;95169.06;5008651;28;20103;-71
2021/07/29 00:36:55;;;;;;;7.03;2.80;;;;;;;13.13;50.17;95168.13;5009155;28;20038;-70
2021/07/29 00:39:20;;;;;;;6.22;2.63;;;;;;;13.45;49.78;95171.00;5012470;28;20049;-71
2021/07/29 00:41:47;;;;;;;6.18;2.70;;;;;;;11.80;53.61;95170.97;5009174;28;20088;-70
2021/07/29 00:44:13;;;;;;;9.55;3.47;;;;;;;13.05;50.34;95163.81;5012186;28;20038;-70
2021/07/29 00:46:38;;;;;;;6.25;2.90;;;;;;;13.40;49.15;95155.56;5007666;28;20049;-70
2021/07/29 00:49:04;;;;;;;5.30;2.50;;;;;;;12.86;50.48;95158.22;5008705;28;20037;-71
2021/07/29 00:51:29;;;;;;;4.43;2.60;;;;;;;13.00;50.09;95158.25;4991637;28;20042;-71
2021/07/29 00:53:55;;;;;;;4.18;2.60;;;;;;;13.50;48.39;95154.34;5007989;28;20029;-70
2021/07/29 00:56:20;;;;;;;5.50;2.70;;;;;;;13.60;47.96;95152.03;5008710;28;20407;-70
2021/07/29 00:58:46;;;;;;;4.43;2.30;;;;;;;13.61;48.32;95153.72;5008637;28;20038;-71
2021/07/29 01:01:11;;;;;;;6.68;3.25;;;;;;;13.56;48.10;95148.13;5007633;28;20519;-70
2021/07/29 01:03:37;;;;;;;4.35;2.58;;;;;;;11.94;52.29;95155.88;5008563;28;20053;-70
2021/07/29 01:06:02;;;;;;;5.47;3.55;;;;;;;13.49;48.49;95139.34;5006892;28;20038;-71
2021/07/29 01:08:27;;;;;;;4.32;2.55;;;;;;;13.75;47.79;95138.44;5008237;28;20067;-71
2021/07/29 01:10:53;;;;;;;3.80;2.60;;;;;;;12.80;50.30;95145.69;5008369;28;20049;-70
2021/07/29 01:13:18;;;;;;;4.03;2.50;;;;;;;13.52;48.04;95149.59;5009034;28;20126;-71
2021/07/29 01:15:44;;;;;;;6.47;2.33;;;;;;;13.62;47.70;95147.31;5008324;28;20119;-72
2021/07/29 01:18:09;;;;;;;5.63;2.58;;;;;;;13.96;47.14;95144.56;5008867;28;20033;-71
2021/07/29 01:20:35;;;;;;;4.55;2.40;;;;;;;14.00;46.66;95150.34;5006972;28;20045;-70
2021/07/29 01:23:00;;;;;;;4.53;2.40;;;;;;;13.34;48.33;95150.22;5008551;28;20042;-71
2021/07/29 01:25:26;;;;;;;5.18;2.38;;;;;;;13.95;47.19;95142.94;5008783;28;20025;-71
2021/07/29 01:27:51;;;;;;;9.35;2.60;;;;;;;13.04;48.75;95141.63;5008092;28;20099;-71
2021/07/29 01:30:16;;;;;;;4.43;2.50;;;;;;;12.90;49.13;95143.44;5008681;28;20041;-70
2021/07/29 01:32:42;;;;;;;9.13;2.80;;;;;;;12.50;50.35;95138.00;5008253;28;20404;-70
2021/07/29 01:35:11;;;;;;;5.60;2.63;;;;;;;12.89;49.74;95139.09;5006162;28;20049;-71
2021/07/29 01:37:38;;;;;;;5.20;2.88;;;;;;;12.56;50.10;95141.72;5039287;28;20057;-70
2021/07/29 01:40:04;;;;;;;5.47;2.67;;;;;;;12.57;49.82;95144.19;5007762;28;20063;-70
2021/07/29 01:42:29;;;;;;;3.60;2.42;;;;;;;12.91;49.08;95139.72;5007969;28;20587;-71
2021/07/29 01:44:54;;;;;;;6.43;2.63;;;;;;;13.03;48.54;95134.59;5008117;28;20394;-71
2021/07/29 01:47:20;;;;;;;4.25;2.38;;;;;;;12.98;48.85;95133.56;5005717;28;20049;-70
2021/07/29 01:49:45;;;;;;;4.40;2.45;;;;;;;12.74;49.52;95139.28;5008515;28;20038;-70
2021/07/29 01:52:11;;;;;;;4.28;2.50;;;;;;;12.65;48.82;95136.00;5007676;28;20053;-70
2021/07/29 01:54:36;;;;;;;5.03;2.60;;;;;;;12.97;48.58;95132.75;5007762;28;20351;-70
2021/07/29 01:57:05;;;;;;;6.32;2.80;;;;;;;12.77;48.62;95133.56;5007995;28;20156;-70
2021/07/29 01:59:33;;;;;;;6.75;2.70;;;;;;;12.45;49.61;95137.81;5007653;28;20128;-70
2021/07/29 02:01:59;;;;;;;10.90;3.08;;;;;;;11.91;52.00;95135.75;5005018;28;20034;-70
2021/07/29 02:04:24;;;;;;;7.43;2.63;;;;;;;12.25;50.09;95135.91;5004200;28;20082;-70
2021/07/29 02:06:49;;;;;;;5.45;2.92;;;;;;;12.35;50.51;95125.69;5007292;28;20041;-71
2021/07/29 02:09:15;;;;;;;6.78;2.80;;;;;;;12.18;51.01;95129.72;5007911;28;20046;-70
2021/07/29 02:11:40;;;;;;;4.47;2.45;;;;;;;13.08;48.46;95127.84;5007495;28;20592;-70
2021/07/29 02:14:06;;;;;;;6.38;3.15;;;;;;;12.32;50.52;95128.75;5007854;28;20117;-70
2021/07/29 02:16:31;;;;;;;5.38;2.38;;;;;;;12.89;48.97;95125.75;5007138;28;20030;-70
2021/07/29 02:18:56;;;;;;;4.57;2.65;;;;;;;12.47;49.97;95122.38;5007219;28;20080;-70
2021/07/29 02:21:22;;;;;;;6.78;2.80;;;;;;;12.37;50.24;95120.94;5007944;28;20034;-70
2021/07/29 02:23:47;;;;;;;3.40;2.50;;;;;;;11.76;51.92;95143.88;5007445;28;20048;-70
2021/07/29 02:26:13;;;;;;;4.63;2.80;;;;;;;11.83;51.85;95139.38;5007575;28;20118;-71
2021/07/29 02:28:38;;;;;;;7.70;2.72;;;;;;;11.38;53.12;95134.41;5000750;28;20096;-70
2021/07/29 02:31:04;;;;;;;5.93;2.63;;;;;;;12.79;49.39;95128.00;5007490;28;20038;-70
2021/07/29 02:33:29;;;;;;;4.18;2.75;;;;;;;12.29;50.56;95129.13;5007460;28;20432;-70
2021/07/29 02:35:55;;;;;;;5.40;2.80;;;;;;;11.56;53.01;95130.44;5006721;28;20046;-70
2021/07/29 02:38:20;;;;;;;5.35;2.55;;;;;;;11.66;52.64;95125.56;5005778;28;20042;-70
2021/07/29 02:40:46;;;;;;;6.25;2.60;;;;;;;12.26;50.96;95132.19;5006952;28;20096;-71
2021/07/29 02:43:11;;;;;;;4.30;2.55;;;;;;;12.00;51.35;95134.53;5007510;28;20030;-70
2021/07/29 02:45:36;;;;;;;4.28;2.50;;;;;;;12.31;50.81;95136.94;5007220;28;20432;-70
2021/07/29 02:48:02;;;;;;;5.70;2.80;;;;;;;12.39;50.76;95134.09;5003347;28;20490;-70
2021/07/29 02:50:27;;;;;;;4.18;2.58;;;;;;;12.52;50.44;95127.97;5007589;28;20029;-71
2021/07/29 02:52:53;;;;;;;5.75;2.70;;;;;;;12.94;49.04;95133.16;5006904;28;20127;-70
2021/07/29 02:55:20;;;;;;;3.70;2.45;;;;;;;12.40;50.68;95133.91;5006815;28;20088;-70
2021/07/29 02:57:45;;;;;;;7.32;2.72;;;;;;;11.84;52.29;95134.88;5007246;28;20028;-71
2021/07/29 03:00:11;;;;;;;7.57;2.85;;;;;;;11.11;54.31;95134.22;5007033;28;20033;-70
2021/07/29 03:02:36;;;;;;;4.75;2.58;;;;;;;11.64;53.09;95122.28;5003822;28;20168;-70
2021/07/29 03:05:02;;;;;;;4.35;2.33;;;;;;;11.62;52.81;95142.97;5006873;28;20045;-70
2021/07/29 03:07:29;;;;;;;4.90;2.67;;;;;;;11.46;53.47;95138.78;5006872;28;20076;-70
2021/07/29 03:09:55;;;;;;;5.05;2.17;;;;;;;12.08;52.17;95143.44;5006631;28;20050;-70
2021/07/29 03:12:20;;;;;;;2.70;2.28;;;;;;;11.49;53.60;95138.41;5005420;28;20084;-70
2021/07/29 03:14:46;;;;;;;5.38;3.20;;;;;;;11.66;53.44;95140.75;5006460;28;20034;-70
2021/07/29 03:17:12;;;;;;;4.57;2.90;;;;;;;11.34;54.09;95136.66;5007247;28;20021;-70
2021/07/29 03:19:37;;;;;;;5.57;3.08;;;;;;;10.95;55.21;95136.13;5006323;28;20061;-70
2021/07/29 03:22:03;;;;;;;3.30;2.40;;;;;;;11.58;53.91;95142.56;5007362;28;20029;-70
2021/07/29 03:24:28;;;;;;;5.43;2.80;;;;;;;11.44;53.72;95140.81;5006761;28;20065;-70
2021/07/29 03:26:54;;;;;;;7.25;2.70;;;;;;;11.41;54.21;95150.03;5006176;28;20076;-70
2021/07/29 03:29:19;;;;;;;5.80;2.35;;;;;;;11.54;53.84;95140.47;5009127;28;20045;-70
2021/07/29 03:31:45;;;;;;;4.43;3.05;;;;;;;11.70;53.41;95140.13;5010159;28;20038;-70
2021/07/29 03:34:10;;;;;;;9.80;3.28;;;;;;;11.48;54.00;95136.72;5010171;28;20045;-70
2021/07/29 03:36:35;;;;;;;4.65;2.75;;;;;;;11.76;52.89;95141.19;5009195;28;20045;-70
2021/07/29 03:39:05;;;;;;;4.20;2.90;;;;;;;11.39;54.11;95150.22;5007158;28;20042;-70
2021/07/29 03:41:30;;;;;;;5.70;2.55;;;;;;;11.35;54.48;95150.78;5010236;28;20041;-70
2021/07/29 03:43:56;;;;;;;4.97;2.70;;;;;;;10.88;56.34;95156.53;5010180;28;20046;-70
2021/07/29 03:46:21;;;;;;;5.57;3.05;;;;;;;11.29;54.65;95154.25;5010481;28;20038;-70
2021/07/29 03:48:47;;;;;;;5.18;3.10;;;;;;;11.54;54.23;95148.47;5007020;28;20041;-70
2021/07/29 03:51:13;;;;;;;6.47;3.33;;;;;;;11.47;54.40;95157.25;5010139;28;20506;-70
2021/07/29 03:53:38;;;;;;;4.97;2.80;;;;;;;11.15;55.45;95158.66;5010466;28;20033;-70
2021/07/29 03:56:04;;;;;;;5.20;3.00;;;;;;;11.24;54.96;95157.50;5009776;28;20062;-70
2021/07/29 03:58:29;;;;;;;6.75;2.85;;;;;;;11.30;54.70;95166.56;5009887;28;20040;-70
2021/07/29 04:00:58;;;;;;;4.20;2.75;;;;;;;11.42;54.67;95173.00;5010392;28;20172;-70
2021/07/29 04:03:23;;;;;;;5.93;2.90;;;;;;;10.96;56.21;95160.94;5005108;28;20034;-71
2021/07/29 04:05:49;;;;;;;5.32;2.83;;;;;;;10.97;55.91;95166.06;5009503;28;20045;-71
2021/07/29 04:08:14;;;;;;;6.57;2.80;;;;;;;11.69;54.04;95157.16;5009783;28;20042;-70
2021/07/29 04:10:40;;;;;;;5.00;2.90;;;;;;;11.32;55.21;95165.34;5009413;28;20104;-70
2021/07/29 04:13:05;;;;;;;7.03;2.90;;;;;;;11.21;55.43;95173.84;5009894;28;20034;-70
2021/07/29 04:15:30;;;;;;;4.70;3.00;;;;;;;11.93;53.04;95170.22;5009307;28;20045;-70
2021/07/29 04:17:57;;;;;;;4.63;3.05;;;;;;;12.22;52.56;95168.31;5010022;28;20124;-70
2021/07/29 04:20:23;;;;;;;5.63;2.60;;;;;;;11.73;53.83;95173.63;5009652;28;20483;-70
2021/07/29 04:22:49;;;;;;;5.03;3.10;;;;;;;11.08;55.88;95174.56;5009538;28;20176;-70
2021/07/29 04:25:14;;;;;;;5.55;2.88;;;;;;;11.50;54.90;95183.50;5009785;28;20034;-70
2021/07/29 04:27:39;;;;;;;5.10;2.90;;;;;;;11.56;54.82;95173.91;5009501;28;20037;-70
2021/07/29 04:30:05;;;;;;;4.68;2.63;;;;;;;11.64;54.66;95172.94;5009582;28;20085;-70
2021/07/29 04:32:35;;;;;;;3.83;2.80;;;;;;;12.01;53.37;95173.53;5009372;28;20041;-70
2021/07/29 04:35:01;;;;;;;3.00;2.60;;;;;;;12.02;53.31;95182.38;5009126;28;20044;-70
2021/07/29 04:37:26;;;;;;;5.43;3.28;;;;;;;11.70;54.29;95176.66;5005578;28;20029;-70
2021/07/29 04:39:52;;;;;;;5.88;2.92;;;;;;;11.99;53.32;95169.41;5008237;28;20034;-70
2021/07/29 04:42:17;;;;;;;4.75;2.90;;;;;;;11.95;53.46;95173.50;5009899;28;20383;-70
2021/07/29 04:44:42;;;;;;;4.43;2.78;;;;;;;11.90;53.26;95169.59;5008697;28;20041;-70
2021/07/29 04:47:08;;;;;;;6.28;3.05;;;;;;;11.95;53.58;95174.34;5005788;28;20038;-70
2021/07/29 04:49:33;;;;;;;8.90;3.10;;;;;;;11.61;54.43;95176.00;5008937;28;20044;-70
2021/07/29 04:51:59;;;;;;;7.72;3.10;;;;;;;10.70;57.24;95175.63;5008951;28;20139;-70
2021/07/29 04:54:24;;;;;;;7.57;3.03;;;;;;;11.85;53.83;95174.69;5008594;28;20033;-70
2021/07/29 04:56:50;;;;;;;5.90;2.67;;;;;;;12.05;53.54;95173.13;5009121;28;20025;-70
2021/07/29 04:59:15;;;;;;;3.95;3.00;;;;;;;12.20;52.57;95184.53;5008436;28;20030;-70
2021/07/29 05:01:42;;;;;;;5.40;3.08;;;;;;;11.92;53.67;95179.22;5007200;28;20048;-70
2021/07/29 05:04:07;;;;;;;8.35;3.33;;;;;;;12.00;53.40;95177.22;5006645;28;20084;-70
2021/07/29 05:06:34;;;;;;;7.25;2.80;;;;;;;12.00;54.00;95182.56;5006804;28;20045;-70
2021/07/29 05:08:59;;;;;;;5.30;2.75;;;;;;;11.69;54.22;95186.50;5005742;28;20048;-70
2021/07/29 05:11:25;;;;;;;6.18;2.80;;;;;;;11.92;53.79;95184.56;5008391;28;20507;-70
2021/07/29 05:13:53;;;;;;;4.32;2.78;;;;;;;11.62;54.49;95186.47;5009152;28;20633;-70
2021/07/29 05:16:19;;;;;;;6.90;3.08;;;;;;;11.31;56.08;95182.34;5008112;28;20737;-70
2021/07/29 05:18:45;;;;;;;4.53;2.90;;;;;;;11.88;54.28;95174.31;5007610;28;20026;-70
2021/07/29 05:21:10;;;;;;;6.00;2.78;;;;;;;11.69;54.49;95191.03;5006916;28;20428;-70
2021/07/29 05:23:36;;;;;;;6.18;2.85;;;;;;;11.98;54.08;95189.13;5007287;28;20034;-70
2021/07/29 05:26:01;;;;;;;8.80;2.85;;;;;;;12.03;54.00;95192.00;5006014;28;20373;-70
2021/07/29 05:28:27;;;;;;;5.40;3.10;;;;;;;12.39;53.30;95180.31;5004843;28;20047;-70
2021/07/29 05:30:52;;;;;;;5.20;2.80;;;;;;;12.58;52.90;95183.22;4988475;28;20034;-70
2021/07/29 05:33:18;;;;;;;8.43;3.08;;;;;;;12.37;52.83;95190.34;5004719;28;20060;-70
2021/07/29 05:35:44;;;;;;;6.07;2.88;;;;;;;12.24;53.28;95185.78;5006235;28;20030;-70
2021/07/29 05:38:09;;;;;;;3.88;2.67;;;;;;;12.46;52.39;95191.00;5008401;28;20084;-70
2021/07/29 05:40:35;;;;;;;4.28;2.83;;;;;;;12.34;53.40;95185.41;5004424;28;20041;-70
2021/07/29 05:43:00;;;;;;;4.88;2.75;;;;;;;12.66;52.28;95196.41;5003979;28;20065;-70
2021/07/29 05:45:28;;;;;;;4.75;2.80;;;;;;;12.45;53.17;95193.88;5002741;28;20117;-72
2021/07/29 05:47:54;;;;;;;3.70;2.70;;;;;;;12.70;52.12;95199.47;5003589;28;20046;-70
2021/07/29 05:50:19;;;;;;;4.63;2.90;;;;;;;12.41;52.79;95202.28;5004153;28;20038;-70
2021/07/29 05:52:45;;;;;;;5.20;2.90;;;;;;;12.08;54.29;95208.31;5005912;28;20052;-70
2021/07/29 05:55:10;;;;;;;8.05;2.67;;;;;;;12.06;54.54;95214.81;5007152;28;20049;-70
2021/07/29 05:57:35;;;;;;;5.57;3.20;;;;;;;11.44;55.90;95207.44;5005292;28;20044;-70
2021/07/29 06:00:01;;;;;;;5.43;2.75;;;;;;;11.81;55.48;95205.47;5004569;28;20064;-70
2021/07/29 06:02:27;;;;;;;6.03;3.17;;;;;;;11.81;54.68;95208.13;5004642;28;20506;-70
2021/07/29 06:04:52;;;;;;;6.00;2.83;;;;;;;11.72;55.45;95210.13;5011774;28;20041;-70
2021/07/29 06:07:18;;;;;;;7.78;2.60;;;;;;;12.12;53.74;95206.06;5008586;28;20099;-70
2021/07/29 06:09:44;;;;;;;5.63;3.03;;;;;;;11.06;56.41;95208.53;5005464;28;20046;-70
2021/07/29 06:12:09;;;;;;;6.70;3.10;;;;;;;12.00;54.28;95203.91;4998435;28;20130;-70
2021/07/29 06:14:35;;;;;;;4.90;2.47;;;;;;;12.45;53.29;95205.38;5004682;28;20045;-70
2021/07/29 06:17:00;;;;;;;5.30;3.20;;;;;;;11.59;54.68;95210.84;5010797;28;20033;-70
2021/07/29 06:19:32;;;;;;;6.05;2.67;;;;;;;12.66;52.15;95199.06;5006247;28;20050;-70
2021/07/29 06:21:58;;;;;;;5.53;2.70;;;;;;;12.82;51.79;95204.25;5007678;28;20124;-70
2021/07/29 06:24:24;;;;;;;6.82;3.00;;;;;;;12.59;51.89;95211.59;5006268;28;20041;-70
2021/07/29 06:26:50;;;;;;;7.30;3.60;;;;;;;12.50;52.29;95226.13;5004128;28;20074;-70
2021/07/29 06:29:16;;;;;;;7.53;3.83;;;;;;;11.79;54.79;95217.34;5007139;28;20027;-70
2021/07/29 06:31:41;;;;;;;3.90;2.47;;;;;;;11.95;54.07;95216.19;5004332;28;20041;-70
2021/07/29 06:34:06;;;;;;;5.70;2.90;;;;;;;12.24;52.58;95209.00;5006090;28;20038;-70
2021/07/29 06:36:32;;;;;;;6.22;2.67;;;;;;;12.07;53.34;95219.16;5004095;28;20770;-70
2021/07/29 06:38:59;;;;;;;4.45;2.22;;;;;;;12.35;52.51;95221.78;5005751;28;20606;-70
2021/07/29 06:41:25;;;;;;;4.25;2.80;;;;;;;12.11;52.46;95237.22;5004132;28;20518;-70
2021/07/29 06:43:50;;;;;;;7.45;2.97;;;;;;;11.38;55.97;95239.19;5004666;28;20113;-70
2021/07/29 06:46:16;;;;;;;7.05;3.00;;;;;;;11.85;54.59;95224.53;5006342;28;20037;-70
2021/07/29 06:48:41;;;;;;;6.88;2.85;;;;;;;11.77;54.30;95222.88;5003873;28;20037;-70
2021/07/29 06:51:07;;;;;;;5.95;2.70;;;;;;;11.56;54.39;95232.56;5005053;28;20041;-70
2021/07/29 06:53:34;;;;;;;8.48;3.15;;;;;;;11.98;53.99;95235.31;5004133;28;20030;-70
2021/07/29 06:55:59;;;;;;;3.47;2.50;;;;;;;12.07;53.86;95224.50;5005516;28;20323;-70
2021/07/29 06:58:25;;;;;;;6.97;2.63;;;;;;;11.86;54.09;95243.03;5009029;28;20082;-70
2021/07/29 07:00:51;;;;;;;9.60;3.03;;;;;;;12.15;51.91;95233.19;5003739;28;20511;-70
2021/07/29 07:03:16;;;;;;;6.30;2.80;;;;;;;11.25;55.52;95236.41;5003343;28;20548;-70
2021/07/29 07:05:47;;;;;;;6.47;2.95;;;;;;;10.75;56.87;95242.47;5005169;28;20371;-70
2021/07/29 07:08:13;;;;;;;6.70;3.08;;;;;;;11.82;53.48;95238.25;5006667;28;20399;-70
2021/07/29 07:10:39;;;;;;;6.90;2.67;;;;;;;11.56;54.81;95242.41;5003637;28;20103;-71
2021/07/29 07:13:04;;;;;;;4.68;2.60;;;;;;;11.28;55.45;95228.03;5004613;28;20642;-70
2021/07/29 07:15:30;;;;;;;6.28;2.80;;;;;;;11.71;53.33;95236.97;5002900;28;20042;-70
2021/07/29 07:17:55;;;;;;;9.95;2.45;;;;;;;11.38;54.93;95231.19;5003949;28;20030;-70
2021/07/29 07:20:21;;;;;;;5.32;2.22;;;;;;;11.74;53.48;95237.41;5003945;28;20125;-70
2021/07/29 07:22:47;;;;;;;4.63;2.50;;;;;;;11.51;54.08;95237.66;5003300;28;20168;-70
2021/07/29 07:25:12;;;;;;;5.75;2.42;;;;;;;11.70;54.10;95238.00;5006652;28;20092;-71
2021/07/29 07:27:38;;;;;;;8.45;2.88;;;;;;;11.75;53.56;95236.41;5002821;28;20522;-70
2021/07/29 07:30:03;;;;;;;4.35;2.80;;;;;;;11.82;53.16;95243.59;5005262;28;20029;-70
2021/07/29 07:32:29;;;;;;;7.93;3.00;;;;;;;11.41;55.00;95251.31;5002654;28;20145;-69
2021/07/29 07:34:54;;;;;;;8.13;2.78;;;;;;;12.52;52.17;95251.59;5004873;28;20038;-69
2021/07/29 07:37:20;;;;;;;6.18;2.65;;;;;;;12.67;51.60;95255.97;5003437;28;20046;-69
2021/07/29 07:39:46;;;;;;;8.90;3.08;;;;;;;12.08;53.70;95253.66;5003579;28;20037;-70
2021/07/29 07:42:12;;;;;;;5.10;3.00;;;;;;;11.68;55.39;95262.19;5008685;28;20555;-70
2021/07/29 07:44:37;;;;;;;4.60;2.90;;;;;;;11.09;58.06;95262.28;5003329;28;20045;-70
2021/07/29 07:47:03;;;;;;;5.43;2.53;;;;;;;10.98;57.80;95258.25;5005853;28;20049;-70
2021/07/29 07:49:28;;;;;;;8.50;3.15;;;;;;;10.33;60.09;95268.78;5003301;28;20048;-70
2021/07/29 07:51:54;;;;;;;5.82;3.15;;;;;;;10.95;60.08;95260.50;5002975;28;20042;-70
2021/07/29 07:54:19;;;;;;;8.55;3.40;;;;;;;10.75;60.01;95266.44;5003073;28;20034;-70
2021/07/29 07:56:45;;;;;;;6.70;2.88;;;;;;;10.97;59.18;95269.09;5003784;28;20042;-69
2021/07/29 07:59:10;;;;;;;6.93;3.15;;;;;;;10.85;60.37;95261.59;4998641;28;20084;-70
2021/07/29 08:01:44;;;;;;;9.85;3.70;;;;;;;11.19;59.24;95255.84;5003412;28;20280;-70
2021/07/29 08:04:09;;;;;;;6.28;3.30;;;;;;;12.28;55.92;95250.28;4997251;28;20069;-70
2021/07/29 08:06:35;;;;;;;7.45;3.28;;;;;;;11.45;57.26;95251.72;5002153;28;20146;-70
2021/07/29 08:09:01;;;;;;;5.38;2.80;;;;;;;12.37;54.04;95259.75;5002078;28;20054;-70
2021/07/29 08:11:27;;;;;;;2.80;2.55;;;;;;;12.58;52.93;95257.97;5033732;28;20073;-70
2021/07/29 08:13:52;;;;;;;6.30;3.40;;;;;;;12.48;51.52;95257.56;5009399;28;20101;-70
2021/07/29 08:16:18;;;;;;;8.23;2.60;;;;;;;12.82;52.03;95250.50;5004251;28;20095;-70
2021/07/29 08:18:43;;;;;;;10.55;3.35;;;;;;;11.34;53.72;95253.94;5009342;28;20379;-70
2021/07/29 08:21:12;;;;;;;6.57;2.90;;;;;;;12.42;52.52;95251.16;5009063;28;20038;-70
2021/07/29 08:23:37;;;;;;;9.00;3.00;;;;;;;12.56;51.12;95262.72;5007420;28;20097;-70
2021/07/29 08:26:03;;;;;;;4.45;2.65;;;;;;;12.93;51.47;95249.88;5005518;28;20270;-70
2021/07/29 08:28:28;;;;;;;11.55;3.00;;;;;;;13.42;50.36;95246.25;5004067;28;20040;-70
2021/07/29 08:30:53;;;;;;;5.15;2.75;;;;;;;14.05;48.96;95242.31;5004989;28;20515;-70
2021/07/29 08:33:19;;;;;;;5.00;2.90;;;;;;;13.32;50.74;95241.31;5003820;28;20096;-70
2021/07/29 08:35:44;;;;;;;9.05;3.17;;;;;;;13.60;50.25;95248.31;5002816;28;20049;-70
2021/07/29 08:38:10;;;;;;;6.93;3.22;;;;;;;13.54;49.51;95243.81;5007692;28;20391;-70
2021/07/29 08:40:35;;;;;;;6.60;3.00;;;;;;;13.67;49.91;95243.00;5006112;28;20042;-70
2021/07/29 08:43:01;;;;;;;6.57;3.10;;;;;;;14.08;49.17;95249.13;5005257;28;20038;-71
2021/07/29 08:45:27;;;;;;;8.73;2.78;;;;;;;14.24;49.01;95252.41;5006216;28;20247;-70
2021/07/29 08:47:53;;;;;;;6.35;3.22;;;;;;;13.61;50.28;95252.66;5003817;28;20487;-70
2021/07/29 08:50:18;;;;;;;6.70;2.90;;;;;;;14.29;49.09;95244.53;5005366;28;20055;-71
2021/07/29 08:52:44;;;;;;;5.82;2.67;;;;;;;14.23;48.69;95254.22;5006205;28;20042;-70
2021/07/29 08:55:09;;;;;;;4.07;2.88;;;;;;;14.37;47.53;95244.31;4987814;28;20033;-70
2021/07/29 08:57:38;;;;;;;4.03;2.58;;;;;;;13.97;48.29;95245.22;5012689;28;20153;-70
2021/07/29 09:00:07;;;;;;;7.70;3.28;;;;;;;14.31;48.23;95243.28;5005317;28;20040;-70
2021/07/29 09:02:32;;;;;;;3.55;2.75;;;;;;;14.39;46.78;95239.56;4997987;28;20046;-70
2021/07/29 09:05:11;;;;;;;7.80;2.50;;;;;;;14.49;45.70;95251.69;5005176;28;20391;-70
2021/07/29 09:07:37;;;;;;;5.07;2.63;;;;;;;13.15;48.41;95251.59;5010819;28;20196;-70
2021/07/29 09:10:04;;;;;;;6.30;2.55;;;;;;;13.57;46.93;95254.91;5004158;28;20165;-70
2021/07/29 09:12:29;;;;;;;5.72;2.80;;;;;;;12.83;48.29;95249.44;5005366;28;20041;-70
2021/07/29 09:14:54;;;;;;;4.18;2.55;;;;;;;13.16;48.44;95258.59;5005635;28;20052;-70
2021/07/29 09:17:21;;;;;;;4.68;2.47;;;;;;;13.64;47.02;95238.88;5006510;28;20034;-70
2021/07/29 09:19:50;;;;;;;7.22;2.70;;;;;;;13.48;47.87;95248.13;5009642;28;20519;-70
2021/07/29 09:22:17;;;;;;;8.02;3.00;;;;;;;12.92;48.26;95253.56;4998885;28;20116;-70
2021/07/29 09:25:05;;;;;;;5.00;2.75;;;;;;;13.57;48.56;95240.72;5007407;28;20128;-70
2021/07/29 09:27:39;;;;;;;4.15;2.50;;;;;;;14.06;47.68;95254.69;5005169;28;20152;-70
2021/07/29 09:30:20;;;;;;;7.57;2.65;;;;;;;14.11;46.77;95237.19;5004691;28;20026;-71
2021/07/29 09:32:52;;;;;;;6.72;2.10;;;;;;;15.09;42.35;95232.66;5001405;28;20072;-71
2021/07/29 09:35:44;;;;;;;2.05;1.83;;;;;;;15.12;40.34;95246.66;5002304;28;20048;-71
2021/07/29 09:38:20;;;;;;;6.15;2.33;;;;;;;14.44;41.33;95254.97;5001415;28;20045;-69
2021/07/29 09:40:56;;;;;;;3.95;1.80;;;;;;;14.53;40.88;95245.69;5003601;28;20049;-70
2021/07/29 09:43:23;;;;;;;6.78;2.17;;;;;;;14.16;40.43;95246.22;5000801;28;20045;-70
2021/07/29 09:45:53;;;;;;;2.97;1.80;;;;;;;13.41;41.57;95250.81;5004020;28;20029;-70
2021/07/29 09:48:21;;;;;;;4.05;1.95;;;;;;;13.91;42.20;95252.22;5002019;28;20420;-70
2021/07/29 09:50:47;;;;;;;7.80;2.45;;;;;;;13.36;44.75;95258.59;4998510;28;20708;-71
2021/07/29 09:53:12;;;;;;;3.17;1.80;;;;;;;13.25;43.43;95284.09;4999138;28;20176;-70
2021/07/29 09:55:38;;;;;;;4.93;2.13;;;;;;;13.83;42.01;95260.44;5000401;28;20188;-70
2021/07/29 09:58:04;;;;;;;7.78;1.80;;;;;;;13.92;41.82;95267.28;5000526;28;20428;-70
2021/07/29 10:00:30;;;;;;;3.30;1.85;;;;;;;14.00;43.49;95262.75;4998494;28;20069;-71
2021/07/29 10:02:56;;;;;;;3.20;1.85;;;;;;;14.17;43.43;95255.91;5001297;28;20419;-70
2021/07/29 10:05:24;;;;;;;5.00;2.20;;;;;;;13.40;42.41;95254.50;4999607;28;20298;-70
2021/07/29 10:07:50;;;;;;;2.95;2.08;;;;;;;13.73;42.11;95302.88;5002474;28;20503;-70
2021/07/29 10:10:22;;;;;;;6.85;2.08;;;;;;;13.45;42.53;95256.56;5007584;28;20108;-70
2021/07/29 10:12:48;;;;;;;4.75;2.15;;;;;;;13.79;42.24;95262.72;4998418;28;20160;-72
2021/07/29 10:15:19;;;;;;;6.32;2.30;;;;;;;13.46;41.57;95263.53;5000465;28;20123;-69
2021/07/29 10:17:46;;;;;;;3.40;2.00;;;;;;;14.02;40.61;95258.00;4983249;28;20029;-69
2021/07/29 10:20:11;;;;;;;5.72;2.10;;;;;;;13.66;41.17;95263.56;5000505;28;20078;-70
2021/07/29 10:22:36;;;;;;;4.07;2.00;;;;;;;14.74;40.29;95254.50;4998073;28;20331;-69
2021/07/29 10:25:02;;;;;;;7.30;2.45;;;;;;;14.33;40.20;95272.53;4998819;28;20276;-70
2021/07/29 10:27:27;;;;;;;3.28;1.73;;;;;;;14.25;39.44;95270.09;5000621;28;20050;-71
2021/07/29 10:29:53;;;;;;;2.90;1.80;;;;;;;13.83;38.76;95295.22;4999122;28;20434;-71
2021/07/29 10:32:42;;;;;;;3.13;1.80;;;;;;;12.97;40.65;95281.53;4999677;28;20490;-70
2021/07/29 10:35:25;;;;;;;1.55;1.40;;;;;;;13.89;38.74;95290.94;4997471;28;20052;-70
2021/07/29 10:37:53;;;;;;;3.17;1.88;;;;;;;13.31;40.65;95275.28;5003273;28;20462;-71
2021/07/29 10:40:34;;;;;;;2.42;1.90;;;;;;;13.42;41.32;95305.94;5000816;28;20056;-71
2021/07/29 10:43:24;;;;;;;3.05;1.73;;;;;;;13.51;41.92;95282.50;5009276;28;20100;-70
2021/07/29 10:45:53;;;;;;;4.22;1.98;;;;;;;14.33;40.22;95277.91;4995890;28;20062;-71
2021/07/29 10:48:41;;;;;;;4.00;1.85;;;;;;;14.78;39.87;95282.50;4997933;28;20080;-71
2021/07/29 10:51:22;;;;;;;3.25;2.15;;;;;;;14.22;41.17;95287.41;5000257;28;20034;-71
2021/07/29 10:53:49;;;;;;;2.30;2.00;;;;;;;14.18;41.00;95280.81;4996191;28;20045;-71
2021/07/29 10:56:16;;;;;;;3.88;2.10;;;;;;;13.68;40.88;95266.03;4999859;28;20066;-73
2021/07/29 10:58:45;;;;;;;4.22;2.30;;;;;;;14.26;41.21;95280.59;5001344;28;20447;-71
2021/07/29 11:01:11;;;;;;;4.10;2.20;;;;;;;13.70;42.53;95290.69;4999153;28;20082;-72
2021/07/29 11:03:51;;;;;;;2.10;1.80;;;;;;;13.17;42.41;95295.81;4996940;28;20034;-71
2021/07/29 11:06:36;;;;;;;4.57;2.17;;;;;;;13.47;42.36;95299.13;5000290;28;20450;-70
2021/07/29 11:09:14;;;;;;;3.63;1.90;;;;;;;14.40;39.91;95277.88;4986995;28;20118;-71
2021/07/29 11:11:43;;;;;;;2.35;1.70;;;;;;;14.66;38.18;95303.75;4974195;28;20042;-71
2021/07/29 11:14:09;;;;;;;3.42;1.80;;;;;;;13.64;39.83;95281.69;4980463;28;20346;-70
2021/07/29 11:16:34;;;;;;;4.20;2.28;;;;;;;14.43;39.61;95272.94;4978716;28;20106;-71
2021/07/29 11:19:01;;;;;;;2.65;2.00;;;;;;;14.34;39.16;95275.00;4949527;28;20492;-71
2021/07/29 11:21:26;;;;;;;3.65;1.92;;;;;;;14.50;39.18;95282.78;4974337;28;20060;-71
2021/07/29 11:23:52;;;;;;;4.47;1.90;;;;;;;15.12;38.57;95289.56;4978860;28;20031;-71
2021/07/29 11:26:17;;;;;;;2.28;1.77;;;;;;;14.78;38.03;95306.63;4979186;28;20042;-71
2021/07/29 11:28:43;;;;;;;3.88;1.90;;;;;;;13.62;40.36;95298.94;4979677;28;20035;-72
2021/07/29 11:31:08;;;;;;;2.83;1.67;;;;;;;14.03;38.86;95289.91;4979519;28;20042;-71